Time;durP1;ratioP1;P1;durP2;ratioP2;P2;SDS_P1;SDS_P2;PMS_P1;PMS_P2;Temp;Humidity;BMP_temperature;BMP_pressure;BME280_temperature;BME280_humidity;BME280_pressure;Samples;Min_cycle;Max_cycle;Signal;HPM_P1;HPM_P2
2022/07/09 00:02:09;;;;;;;2.08;0.57;;;12.00;99.90;;;;;;4954835;29;20023;-72
2022/07/09 00:04:37;;;;;;;2.25;0.47;;;12.00;99.90;;;;;;4937114;29;20023;-72
2022/07/09 00:07:05;;;;;;;1.52;0.55;;;12.10;99.90;;;;;;4955076;29;20062;-73
2022/07/09 00:09:32;;;;;;;1.60;0.60;;;12.10;99.90;;;;;;4954536;29;20035;-73
2022/07/09 00:11:59;;;;;;;1.80;0.75;;;12.20;99.90;;;;;;4954697;29;20019;-73
2022/07/09 00:14:27;;;;;;;2.10;0.50;;;12.30;99.90;;;;;;4937160;29;20050;-73
2022/07/09 00:16:54;;;;;;;2.20;0.60;;;12.30;99.90;;;;;;4955051;29;20023;-73
2022/07/09 00:19:21;;;;;;;1.27;0.65;;;12.40;99.90;;;;;;4954428;29;20031;-73
2022/07/09 00:21:48;;;;;;;1.95;0.77;;;12.40;99.90;;;;;;4954464;29;20020;-74
2022/07/09 00:24:16;;;;;;;1.77;0.65;;;12.60;99.90;;;;;;4954237;29;20028;-73
2022/07/09 00:26:43;;;;;;;8.07;1.15;;;12.60;99.90;;;;;;4954285;29;20023;-72
2022/07/09 00:29:11;;;;;;;2.75;0.60;;;12.60;99.90;;;;;;4954833;29;20067;-72
2022/07/09 00:31:38;;;;;;;2.95;0.90;;;12.70;99.90;;;;;;4954378;29;20019;-72
2022/07/09 00:34:06;;;;;;;1.95;0.73;;;12.70;99.90;;;;;;4937007;29;20039;-71
2022/07/09 00:36:33;;;;;;;0.88;0.40;;;12.90;99.90;;;;;;4954377;29;20464;-71
2022/07/09 00:39:00;;;;;;;1.10;0.50;;;12.90;99.90;;;;;;4954299;29;20488;-72
2022/07/09 00:41:27;;;;;;;1.88;0.50;;;12.90;99.90;;;;;;4954389;29;20067;-72
2022/07/09 00:43:55;;;;;;;2.25;0.47;;;13.00;99.90;;;;;;4954354;29;20031;-71
2022/07/09 00:46:22;;;;;;;2.28;0.50;;;13.10;99.90;;;;;;4954153;29;20432;-71
2022/07/09 00:48:50;;;;;;;1.73;0.50;;;13.10;99.90;;;;;;4954271;29;20074;-71
2022/07/09 00:51:19;;;;;;;1.17;0.50;;;13.10;99.90;;;;;;4954127;29;20023;-71
2022/07/09 00:53:48;;;;;;;2.65;0.50;;;13.20;99.90;;;;;;4954318;29;20019;-72
2022/07/09 00:56:16;;;;;;;0.77;0.50;;;13.30;99.90;;;;;;4954125;29;20070;-72
2022/07/09 00:58:46;;;;;;;4.60;0.73;;;13.40;99.90;;;;;;4954224;29;20102;-71
2022/07/09 01:01:13;;;;;;;2.00;0.50;;;13.40;99.90;;;;;;4954124;29;20027;-72
2022/07/09 01:03:41;;;;;;;1.70;0.60;;;13.40;99.90;;;;;;4953701;29;20111;-72
2022/07/09 01:06:08;;;;;;;1.60;0.50;;;13.50;99.90;;;;;;4956685;29;20035;-72
2022/07/09 01:08:36;;;;;;;1.52;0.52;;;13.50;99.90;;;;;;4957402;29;20030;-71
2022/07/09 01:11:03;;;;;;;1.48;0.50;;;13.50;99.90;;;;;;4957301;29;20436;-70
2022/07/09 01:13:31;;;;;;;1.58;0.68;;;13.50;99.90;;;;;;4957654;29;20106;-71
2022/07/09 01:15:58;;;;;;;0.95;0.50;;;13.60;99.90;;;;;;4957393;29;20028;-71
2022/07/09 01:18:26;;;;;;;0.70;0.43;;;13.70;99.90;;;;;;4940201;29;20373;-71
2022/07/09 01:20:53;;;;;;;2.53;0.73;;;13.80;99.90;;;;;;4940024;29;20122;-71
2022/07/09 01:23:20;;;;;;;1.13;0.38;;;13.90;99.90;;;;;;4957302;29;20031;-71
2022/07/09 01:25:48;;;;;;;1.77;0.40;;;14.10;99.90;;;;;;4957248;29;20101;-71
2022/07/09 01:28:15;;;;;;;2.08;0.60;;;14.10;99.90;;;;;;4957210;29;20122;-71
2022/07/09 01:30:43;;;;;;;1.23;0.43;;;14.20;99.90;;;;;;4957140;29;20416;-71
2022/07/09 01:33:10;;;;;;;1.98;1.02;;;14.30;99.90;;;;;;4957120;29;20341;-71
2022/07/09 01:35:37;;;;;;;0.70;0.32;;;14.40;99.90;;;;;;4939710;29;20027;-72
2022/07/09 01:38:05;;;;;;;2.03;0.57;;;14.50;99.90;;;;;;4939533;29;20122;-71
2022/07/09 01:40:32;;;;;;;2.45;0.50;;;14.60;99.90;;;;;;4957131;29;20024;-71
2022/07/09 01:42:59;;;;;;;0.98;0.45;;;14.60;99.90;;;;;;4956996;29;20106;-71
2022/07/09 01:45:27;;;;;;;2.42;0.80;;;14.70;99.90;;;;;;4956910;29;20126;-72
2022/07/09 01:47:54;;;;;;;2.67;0.77;;;14.90;99.90;;;;;;4939459;29;20031;-71
2022/07/09 01:50:21;;;;;;;2.05;0.60;;;14.70;99.90;;;;;;4956692;29;20070;-73
2022/07/09 01:52:50;;;;;;;1.25;0.55;;;14.80;99.90;;;;;;4939290;29;20027;-72
2022/07/09 01:55:18;;;;;;;0.60;0.30;;;15.00;99.90;;;;;;4939543;29;20079;-73
2022/07/09 01:57:45;;;;;;;1.08;0.45;;;14.90;99.90;;;;;;4956473;29;20043;-71
2022/07/09 02:00:13;;;;;;;0.70;0.40;;;14.70;99.90;;;;;;4956784;29;20027;-74
2022/07/09 02:02:41;;;;;;;1.27;0.30;;;14.80;99.90;;;;;;4938974;29;20118;-73
2022/07/09 02:05:09;;;;;;;1.05;0.40;;;15.00;99.90;;;;;;4938978;29;20079;-76
2022/07/09 02:07:36;;;;;;;1.63;0.47;;;15.00;99.90;;;;;;4956168;29;20045;-74
2022/07/09 02:10:07;;;;;;;1.20;0.50;;;15.10;99.90;;;;;;4956289;29;20098;-73
2022/07/09 02:12:37;;;;;;;0.90;0.30;;;15.40;99.90;;;;;;4956378;29;20110;-73
2022/07/09 02:15:06;;;;;;;1.75;0.57;;;15.30;99.90;;;;;;4956378;29;20111;-74
2022/07/09 02:17:35;;;;;;;1.48;0.50;;;15.30;99.90;;;;;;4955403;28;20028;-74
2022/07/09 02:20:02;;;;;;;1.02;0.40;;;15.20;99.90;;;;;;4956493;29;20502;-74
2022/07/09 02:22:30;;;;;;;1.23;0.50;;;15.20;99.90;;;;;;4956221;29;20020;-73
2022/07/09 02:24:58;;;;;;;1.08;0.43;;;15.10;99.90;;;;;;4956100;29;20035;-73
2022/07/09 02:27:25;;;;;;;0.75;0.30;;;15.40;99.90;;;;;;4956068;29;20031;-73
2022/07/09 02:29:52;;;;;;;1.45;0.47;;;15.50;99.90;;;;;;4956064;29;20053;-73
2022/07/09 02:32:20;;;;;;;1.25;0.40;;;15.50;99.90;;;;;;4956005;29;20034;-74
2022/07/09 02:34:47;;;;;;;1.70;0.57;;;15.40;99.90;;;;;;4956166;29;20027;-74
2022/07/09 02:37:14;;;;;;;1.40;0.30;;;15.40;99.90;;;;;;4955955;29;20034;-74
2022/07/09 02:39:42;;;;;;;0.95;0.25;;;15.30;99.90;;;;;;4955753;29;20027;-74
2022/07/09 02:42:09;;;;;;;1.33;0.38;;;15.50;99.90;;;;;;4955775;29;20031;-74
2022/07/09 02:44:36;;;;;;;1.35;0.50;;;15.60;99.90;;;;;;4955614;29;20020;-74
2022/07/09 02:47:04;;;;;;;0.82;0.40;;;15.60;99.90;;;;;;4955673;29;20027;-74
2022/07/09 02:49:32;;;;;;;1.63;0.50;;;15.80;99.90;;;;;;4955683;29;20027;-74
2022/07/09 02:51:59;;;;;;;1.95;0.52;;;15.80;99.90;;;;;;4955692;29;20029;-74
2022/07/09 02:54:27;;;;;;;1.27;0.50;;;15.80;99.90;;;;;;4955574;29;20026;-74
2022/07/09 02:56:54;;;;;;;1.73;0.52;;;15.80;99.90;;;;;;4955556;29;20034;-74
2022/07/09 02:59:21;;;;;;;1.88;0.40;;;15.90;99.90;;;;;;4938076;29;20484;-74
2022/07/09 03:01:49;;;;;;;1.55;0.50;;;16.10;99.90;;;;;;4955464;29;20035;-74
2022/07/09 03:04:16;;;;;;;1.73;0.60;;;16.10;99.90;;;;;;4955321;29;20050;-74
2022/07/09 03:06:43;;;;;;;0.85;0.30;;;16.00;99.90;;;;;;4955254;29;20526;-74
2022/07/09 03:09:12;;;;;;;2.15;0.57;;;16.10;99.90;;;;;;4955329;29;20019;-74
2022/07/09 03:11:39;;;;;;;0.75;0.43;;;16.10;99.90;;;;;;4955297;29;20019;-76
2022/07/09 03:14:07;;;;;;;3.13;0.90;;;16.20;99.90;;;;;;4955145;29;20166;-76
2022/07/09 03:16:34;;;;;;;1.77;0.60;;;16.20;99.90;;;;;;4955838;29;20031;-76
2022/07/09 03:19:01;;;;;;;1.05;0.70;;;16.20;99.90;;;;;;4955049;29;20031;-76
2022/07/09 03:21:29;;;;;;;1.52;0.60;;;16.20;99.90;;;;;;4955302;29;20019;-76
2022/07/09 03:23:56;;;;;;;0.88;0.50;;;16.20;99.90;;;;;;4955099;29;20031;-76
2022/07/09 03:26:23;;;;;;;2.47;0.50;;;16.30;99.90;;;;;;4955142;29;20479;-76
2022/07/09 03:28:50;;;;;;;0.80;0.40;;;16.40;99.90;;;;;;4954788;28;20054;-76
2022/07/09 03:31:18;;;;;;;1.58;0.50;;;16.30;99.90;;;;;;4954935;29;20019;-76
2022/07/09 03:33:45;;;;;;;0.93;0.40;;;16.20;99.90;;;;;;4955236;29;20092;-75
2022/07/09 03:36:12;;;;;;;0.95;0.40;;;16.20;99.90;;;;;;4937597;29;20031;-74
2022/07/09 03:38:40;;;;;;;1.95;0.65;;;16.20;99.90;;;;;;4955170;29;20110;-74
2022/07/09 03:41:07;;;;;;;1.30;0.20;;;16.20;99.90;;;;;;4937482;29;20027;-74
2022/07/09 03:43:34;;;;;;;1.00;0.57;;;16.20;99.90;;;;;;4954804;29;20078;-75
2022/07/09 03:46:02;;;;;;;3.47;1.10;;;16.20;99.90;;;;;;4954775;29;20090;-75
2022/07/09 03:48:29;;;;;;;4.18;0.75;;;16.30;99.90;;;;;;4954634;29;20038;-74
2022/07/09 03:50:56;;;;;;;4.35;1.80;;;16.30;99.90;;;;;;4955090;29;20031;-74
2022/07/09 03:53:24;;;;;;;3.30;1.15;;;16.30;99.90;;;;;;4954855;29;20045;-74
2022/07/09 03:55:51;;;;;;;4.00;0.90;;;16.20;99.90;;;;;;4953577;29;20098;-74
2022/07/09 03:58:18;;;;;;;3.00;0.80;;;16.30;99.90;;;;;;4954616;29;20077;-75
2022/07/09 04:00:46;;;;;;;0.85;0.43;;;16.40;99.90;;;;;;4954546;29;20020;-74
2022/07/09 04:03:13;;;;;;;1.40;0.60;;;16.40;99.90;;;;;;4937386;29;20027;-74
2022/07/09 04:05:41;;;;;;;2.08;1.30;;;16.40;99.90;;;;;;4954120;29;20051;-75
2022/07/09 04:08:08;;;;;;;1.05;0.60;;;16.40;99.90;;;;;;4954441;29;20027;-74
2022/07/09 04:10:36;;;;;;;0.93;0.38;;;16.50;99.90;;;;;;4954405;29;20028;-75
2022/07/09 04:13:03;;;;;;;1.52;0.55;;;16.30;99.90;;;;;;4954714;29;20166;-75
2022/07/09 04:15:32;;;;;;;1.05;0.45;;;16.30;99.90;;;;;;4937269;29;20051;-75
2022/07/09 04:17:59;;;;;;;2.45;0.82;;;16.30;99.90;;;;;;4954538;29;20027;-74
2022/07/09 04:20:27;;;;;;;3.90;1.92;;;16.20;99.90;;;;;;4954318;29;20031;-74
2022/07/09 04:22:54;;;;;;;1.23;0.57;;;16.10;99.90;;;;;;4937121;29;20027;-74
2022/07/09 04:25:21;;;;;;;2.05;0.55;;;16.20;99.90;;;;;;4954414;29;20020;-74
2022/07/09 04:27:49;;;;;;;2.42;0.57;;;16.20;99.90;;;;;;4954288;29;20030;-74
2022/07/09 04:30:16;;;;;;;1.58;0.43;;;16.30;99.90;;;;;;4937042;29;20455;-74
2022/07/09 04:32:44;;;;;;;0.75;0.43;;;16.30;99.90;;;;;;4954267;29;20015;-75
2022/07/09 04:35:11;;;;;;;3.20;2.00;;;16.30;99.90;;;;;;4954220;29;20020;-75
2022/07/09 04:37:38;;;;;;;0.73;0.35;;;16.50;99.90;;;;;;4954188;29;20055;-74
2022/07/09 04:40:06;;;;;;;1.05;0.60;;;16.40;99.90;;;;;;4955731;28;20450;-75
2022/07/09 04:42:34;;;;;;;1.40;1.00;;;16.60;99.90;;;;;;4957937;29;20430;-75
2022/07/09 04:45:01;;;;;;;1.50;0.70;;;16.50;99.90;;;;;;4958011;29;20027;-75
2022/07/09 04:47:29;;;;;;;1.08;0.68;;;16.50;99.90;;;;;;4957716;29;20027;-74
2022/07/09 04:49:56;;;;;;;2.17;0.70;;;16.50;99.90;;;;;;4957934;29;20020;-74
2022/07/09 04:52:27;;;;;;;0.90;0.40;;;16.40;99.90;;;;;;4957804;29;20066;-74
2022/07/09 04:54:54;;;;;;;;;;;16.40;99.90;;;;;;4958311;29;20019;-75
2022/07/09 04:57:21;;;;;;;2.03;0.60;;;16.40;99.90;;;;;;4957737;29;20386;-75
2022/07/09 04:59:48;;;;;;;3.90;1.42;;;16.30;99.90;;;;;;4940389;29;20054;-74
2022/07/09 05:02:16;;;;;;;2.70;0.50;;;16.20;99.90;;;;;;4957630;29;20019;-75
2022/07/09 05:04:43;;;;;;;1.40;0.70;;;16.10;99.90;;;;;;4957353;29;20063;-74
2022/07/09 05:07:11;;;;;;;2.33;0.60;;;15.90;99.90;;;;;;4957558;29;20563;-74
2022/07/09 05:09:38;;;;;;;2.00;0.95;;;15.70;99.90;;;;;;4940150;29;20039;-74
2022/07/09 05:12:06;;;;;;;2.92;0.70;;;15.60;99.90;;;;;;4957401;29;20392;-75
2022/07/09 05:14:33;;;;;;;3.13;0.73;;;15.50;99.90;;;;;;4957512;29;20023;-74
2022/07/09 05:17:00;;;;;;;2.08;0.85;;;15.30;99.90;;;;;;4957297;29;20484;-75
2022/07/09 05:19:28;;;;;;;2.05;0.70;;;15.30;99.90;;;;;;4957361;29;20034;-75
2022/07/09 05:21:55;;;;;;;4.60;0.90;;;15.10;99.90;;;;;;4957541;29;20042;-75
2022/07/09 05:24:22;;;;;;;2.28;0.75;;;15.10;99.90;;;;;;4957522;29;20031;-75
2022/07/09 05:26:50;;;;;;;2.47;0.80;;;15.00;99.90;;;;;;4957246;29;20043;-74
2022/07/09 05:29:17;;;;;;;2.30;0.90;;;15.00;99.90;;;;;;4957124;29;20023;-75
2022/07/09 05:31:45;;;;;;;3.80;0.85;;;14.90;99.90;;;;;;4957105;29;20026;-73
2022/07/09 05:34:13;;;;;;;5.45;1.23;;;14.80;99.90;;;;;;4956993;29;20535;-73
2022/07/09 05:36:40;;;;;;;4.00;0.75;;;14.80;99.90;;;;;;4956984;29;20102;-73
2022/07/09 05:39:08;;;;;;;3.20;1.50;;;14.80;99.90;;;;;;4956940;29;20020;-73
2022/07/09 05:41:35;;;;;;;4.28;1.23;;;14.80;99.90;;;;;;4939619;29;20034;-73
2022/07/09 05:44:03;;;;;;;2.92;0.75;;;14.80;99.90;;;;;;4956851;29;20387;-74
2022/07/09 05:46:30;;;;;;;3.70;0.98;;;14.80;99.90;;;;;;4956811;29;20489;-74
2022/07/09 05:48:57;;;;;;;1.38;0.70;;;14.80;99.90;;;;;;4956728;29;20015;-73
2022/07/09 05:51:25;;;;;;;3.60;0.75;;;14.70;99.90;;;;;;4956621;28;20027;-73
2022/07/09 05:53:52;;;;;;;2.95;0.75;;;14.70;99.90;;;;;;4956700;29;20365;-73
2022/07/09 05:56:20;;;;;;;2.72;0.70;;;14.60;99.90;;;;;;4956737;29;20086;-73
2022/07/09 05:58:48;;;;;;;2.15;0.90;;;14.50;99.90;;;;;;4939271;29;20078;-72
2022/07/09 06:01:15;;;;;;;4.07;1.05;;;14.50;99.90;;;;;;4956640;29;20475;-73
2022/07/09 06:03:42;;;;;;;2.30;0.70;;;14.40;99.90;;;;;;4939177;29;20099;-73
2022/07/09 06:06:10;;;;;;;2.08;0.73;;;14.40;99.90;;;;;;4956323;29;20102;-73
2022/07/09 06:08:38;;;;;;;2.83;1.05;;;14.30;99.90;;;;;;4956345;29;20027;-72
2022/07/09 06:11:06;;;;;;;1.17;0.63;;;14.20;99.90;;;;;;4956400;29;20038;-73
2022/07/09 06:13:33;;;;;;;4.78;0.93;;;14.20;99.90;;;;;;4938929;29;20042;-73
2022/07/09 06:16:00;;;;;;;2.75;0.85;;;14.10;99.90;;;;;;4938847;29;20027;-73
2022/07/09 06:18:27;;;;;;;1.10;0.55;;;14.10;99.90;;;;;;4956269;29;20023;-73
2022/07/09 06:20:55;;;;;;;1.70;0.70;;;14.00;99.90;;;;;;4956146;29;20356;-73
2022/07/09 06:23:22;;;;;;;3.65;0.95;;;13.90;99.90;;;;;;4956226;29;20034;-73
2022/07/09 06:25:50;;;;;;;2.22;0.90;;;13.80;99.90;;;;;;4956279;29;20484;-73
2022/07/09 06:28:17;;;;;;;1.85;0.82;;;13.90;99.90;;;;;;4955901;29;20121;-74
2022/07/09 06:30:45;;;;;;;2.85;0.73;;;13.90;99.90;;;;;;4955959;29;20026;-73
2022/07/09 06:33:12;;;;;;;2.00;0.60;;;13.90;99.90;;;;;;4956145;29;20488;-74
2022/07/09 06:35:39;;;;;;;1.67;0.95;;;14.00;99.90;;;;;;4938467;29;20034;-73
2022/07/09 06:38:06;;;;;;;1.15;0.60;;;14.00;99.90;;;;;;4955828;29;20074;-74
2022/07/09 06:40:34;;;;;;;2.40;0.70;;;14.00;99.90;;;;;;4955798;29;20086;-75
2022/07/09 06:43:01;;;;;;;4.13;0.90;;;14.00;99.90;;;;;;4938490;29;20030;-74
2022/07/09 06:45:29;;;;;;;3.05;0.95;;;13.90;99.90;;;;;;4955764;29;20436;-73
2022/07/09 06:47:56;;;;;;;2.15;0.80;;;13.90;99.90;;;;;;4938318;29;20467;-73
2022/07/09 06:50:23;;;;;;;1.00;0.50;;;13.90;99.90;;;;;;4955922;29;20024;-73
2022/07/09 06:52:50;;;;;;;2.60;0.90;;;13.90;99.90;;;;;;4955591;29;20118;-73
2022/07/09 06:55:18;;;;;;;2.42;0.82;;;13.80;99.90;;;;;;4955701;29;20421;-73
2022/07/09 06:57:45;;;;;;;3.78;0.77;;;13.70;99.90;;;;;;4955625;29;20118;-73
2022/07/09 07:00:13;;;;;;;3.65;1.25;;;13.60;99.90;;;;;;4955509;29;20023;-73
2022/07/09 07:02:40;;;;;;;2.58;0.90;;;13.50;99.90;;;;;;4954937;28;20101;-74
2022/07/09 07:05:08;;;;;;;3.45;1.38;;;13.40;99.90;;;;;;4937748;29;20043;-74
2022/07/09 07:07:35;;;;;;;3.05;1.00;;;13.50;99.90;;;;;;4955450;29;20522;-74
2022/07/09 07:10:02;;;;;;;3.50;1.30;;;13.40;99.90;;;;;;4955669;29;20077;-73
2022/07/09 07:12:30;;;;;;;2.17;0.80;;;13.40;99.90;;;;;;4955232;29;20039;-73
2022/07/09 07:14:57;;;;;;;1.75;1.08;;;13.30;99.90;;;;;;4955182;29;20019;-73
2022/07/09 07:17:25;;;;;;;2.85;1.20;;;13.10;99.90;;;;;;4955267;29;20455;-74
2022/07/09 07:19:52;;;;;;;3.40;1.38;;;13.00;99.90;;;;;;4937900;29;20027;-74
2022/07/09 07:22:19;;;;;;;3.10;1.48;;;12.90;99.90;;;;;;4955008;29;20023;-73
2022/07/09 07:24:47;;;;;;;3.97;1.63;;;12.80;99.90;;;;;;4955192;29;20086;-73
2022/07/09 07:27:14;;;;;;;2.33;1.45;;;12.70;99.90;;;;;;4955074;29;20027;-73
2022/07/09 07:29:41;;;;;;;3.25;1.85;;;12.60;99.90;;;;;;4955119;29;20023;-73
2022/07/09 07:32:09;;;;;;;3.05;1.92;;;12.50;99.90;;;;;;4955018;29;20038;-73
2022/07/09 07:34:36;;;;;;;5.20;2.30;;;12.40;99.90;;;;;;4954967;29;20043;-72
2022/07/09 07:37:04;;;;;;;4.28;3.28;;;12.30;99.90;;;;;;4937547;29;20023;-73
2022/07/09 07:39:31;;;;;;;5.75;3.08;;;12.30;99.90;;;;;;4954966;29;20078;-72
2022/07/09 07:41:59;;;;;;;4.93;3.10;;;12.20;99.90;;;;;;4954770;29;20023;-72
2022/07/09 07:44:27;;;;;;;5.72;3.33;;;12.10;99.90;;;;;;4954909;29;20027;-72
2022/07/09 07:46:54;;;;;;;5.07;3.20;;;12.00;99.90;;;;;;4954843;29;20023;-72
2022/07/09 07:49:22;;;;;;;4.90;3.47;;;11.90;99.90;;;;;;4937646;29;20035;-72
2022/07/09 07:51:49;;;;;;;6.20;3.05;;;11.90;99.90;;;;;;4955420;29;20468;-72
2022/07/09 07:54:16;;;;;;;6.03;3.13;;;11.70;99.90;;;;;;4955021;29;20380;-72
2022/07/09 07:56:44;;;;;;;6.50;3.88;;;11.70;99.90;;;;;;4937405;29;20025;-72
2022/07/09 07:59:11;;;;;;;7.32;5.07;;;11.60;99.90;;;;;;4954774;29;20028;-72
2022/07/09 08:01:38;;;;;;;7.90;4.82;;;11.60;99.90;;;;;;4954430;29;20074;-72
2022/07/09 08:04:06;;;;;;;8.35;4.72;;;11.60;99.90;;;;;;4954738;29;20020;-72
2022/07/09 08:06:35;;;;;;;8.05;4.75;;;11.50;99.90;;;;;;4954327;29;20524;-71
2022/07/09 08:09:05;;;;;;;8.10;5.20;;;11.50;99.90;;;;;;4937621;29;20066;-72
2022/07/09 08:11:32;;;;;;;5.28;3.78;;;11.40;99.90;;;;;;4954707;29;20023;-72
2022/07/09 08:14:00;;;;;;;6.57;3.85;;;11.40;99.90;;;;;;4954630;28;20062;-72
2022/07/09 08:16:27;;;;;;;5.45;3.75;;;11.30;99.90;;;;;;4958245;29;20048;-72
2022/07/09 08:18:54;;;;;;;7.90;4.32;;;11.20;99.90;;;;;;4958665;29;20034;-72
2022/07/09 08:21:22;;;;;;;6.13;4.35;;;11.20;99.90;;;;;;4958448;29;20388;-72
2022/07/09 08:23:53;;;;;;;8.90;4.95;;;11.20;99.90;;;;;;4958671;29;20465;-71
2022/07/09 08:26:28;;;;;;;7.95;4.93;;;11.20;99.90;;;;;;4958385;29;20023;-71
2022/07/09 08:28:56;;;;;;;7.30;4.30;;;11.20;99.90;;;;;;4940930;29;20027;-72
2022/07/09 08:31:24;;;;;;;7.45;4.70;;;11.10;99.90;;;;;;4958284;29;20052;-73
2022/07/09 08:33:51;;;;;;;7.60;4.63;;;11.20;99.90;;;;;;4940930;29;20458;-73
2022/07/09 08:36:19;;;;;;;6.55;4.28;;;11.10;99.90;;;;;;4958254;29;20484;-73
2022/07/09 08:38:49;;;;;;;9.80;5.32;;;11.10;99.90;;;;;;4940792;29;20039;-72
2022/07/09 08:41:22;;;;;;;7.57;5.70;;;11.10;99.90;;;;;;4958198;29;20023;-73
2022/07/09 08:43:53;;;;;;;9.98;6.90;;;11.00;99.90;;;;;;4958039;29;20045;-73
2022/07/09 08:46:21;;;;;;;9.07;6.38;;;11.00;99.90;;;;;;4958078;29;20031;-73
2022/07/09 08:48:50;;;;;;;12.23;7.35;;;11.10;99.90;;;;;;4957969;29;20441;-72
2022/07/09 08:51:19;;;;;;;10.88;6.28;;;11.10;99.90;;;;;;4958037;29;20031;-72
2022/07/09 08:53:47;;;;;;;8.77;6.10;;;11.10;99.90;;;;;;4957949;29;20483;-72
2022/07/09 08:56:14;;;;;;;7.75;5.97;;;11.00;99.90;;;;;;4957865;29;20055;-72
2022/07/09 08:58:42;;;;;;;8.68;5.75;;;11.00;99.90;;;;;;4957761;29;20050;-72
2022/07/09 09:01:15;;;;;;;8.80;5.18;;;10.90;99.90;;;;;;4957876;29;20027;-72
2022/07/09 09:03:46;;;;;;;8.80;6.22;;;10.90;99.90;;;;;;4957797;29;20047;-72
2022/07/09 09:06:14;;;;;;;8.27;5.38;;;10.80;99.90;;;;;;4957661;29;20039;-72
2022/07/09 09:08:46;;;;;;;10.73;6.80;;;10.80;99.90;;;;;;4957789;29;20085;-73
2022/07/09 09:11:31;;;;;;;9.95;7.45;;;10.80;99.90;;;;;;4957590;29;20030;-73
2022/07/09 09:13:58;;;;;;;10.27;7.05;;;10.80;99.90;;;;;;4957622;29;20359;-73
2022/07/09 09:16:26;;;;;;;9.27;6.35;;;10.80;99.90;;;;;;4958078;29;20044;-72
2022/07/09 09:18:55;;;;;;;9.45;6.57;;;10.80;99.90;;;;;;4957523;29;20110;-73
2022/07/09 09:21:25;;;;;;;6.50;4.65;;;10.80;99.90;;;;;;4940273;29;20027;-73
2022/07/09 09:23:59;;;;;;;8.68;4.80;;;11.10;99.90;;;;;;4940030;29;20126;-73
2022/07/09 09:26:27;;;;;;;5.30;4.20;;;11.00;99.90;;;;;;4956770;28;20033;-72
2022/07/09 09:28:58;;;;;;;5.90;4.25;;;10.90;99.90;;;;;;4957140;29;20027;-71
2022/07/09 09:31:26;;;;;;;;;;;10.80;99.90;;;;;;4940356;29;20034;-72
2022/07/09 09:33:56;;;;;;;5.97;3.90;;;10.80;99.90;;;;;;4957293;29;19917;-72
2022/07/09 09:36:37;;;;;;;6.43;4.18;;;10.60;99.90;;;;;;4957215;29;20118;-73
2022/07/09 09:39:24;;;;;;;6.47;3.95;;;10.50;99.90;;;;;;4939677;29;20023;-74
2022/07/09 09:41:59;;;;;;;7.78;3.97;;;10.50;99.90;;;;;;4957363;29;20030;-73
2022/07/09 09:44:29;;;;;;;5.53;4.22;;;10.50;99.90;;;;;;4957285;29;20071;-73
2022/07/09 09:46:57;;;;;;;8.90;5.05;;;10.50;99.90;;;;;;4956963;29;20019;-73
2022/07/09 09:49:25;;;;;;;6.57;4.30;;;10.60;99.90;;;;;;4957125;29;20034;-72
2022/07/09 09:51:55;;;;;;;7.57;4.13;;;10.60;99.90;;;;;;4956892;29;20027;-74
2022/07/09 09:54:23;;;;;;;6.40;4.70;;;10.60;99.90;;;;;;4956934;29;20035;-73
2022/07/09 09:56:51;;;;;;;6.80;4.40;;;10.60;99.90;;;;;;4956827;29;20020;-74
2022/07/09 09:59:18;;;;;;;6.00;3.80;;;10.50;99.90;;;;;;4956833;29;20023;-73
2022/07/09 10:01:46;;;;;;;6.00;4.00;;;10.40;99.90;;;;;;4956809;29;20024;-74
2022/07/09 10:04:18;;;;;;;6.18;3.15;;;10.40;99.90;;;;;;4939353;29;20030;-74
2022/07/09 10:06:46;;;;;;;5.68;3.42;;;10.60;99.90;;;;;;4956473;29;20047;-74
2022/07/09 10:09:14;;;;;;;5.55;2.92;;;10.70;99.90;;;;;;4956664;29;20023;-74
2022/07/09 10:11:47;;;;;;;5.10;3.55;;;10.70;99.90;;;;;;4939201;29;20507;-74
2022/07/09 10:14:29;;;;;;;4.82;3.25;;;10.70;99.90;;;;;;4956295;29;20026;-74
2022/07/09 10:17:09;;;;;;;6.60;3.90;;;10.70;99.90;;;;;;4956457;29;20015;-74
2022/07/09 10:19:37;;;;;;;5.10;3.80;;;10.80;99.90;;;;;;4956752;29;20027;-74
2022/07/09 10:22:05;;;;;;;5.00;3.30;;;10.70;99.90;;;;;;4956294;29;20019;-74
2022/07/09 10:24:33;;;;;;;9.07;3.80;;;10.80;99.90;;;;;;4956673;29;20122;-73
2022/07/09 10:27:09;;;;;;;6.40;4.97;;;10.90;99.90;;;;;;4938766;29;20539;-73
2022/07/09 10:29:52;;;;;;;5.88;4.38;;;10.90;99.90;;;;;;4956058;29;20027;-73
2022/07/09 10:32:33;;;;;;;8.50;4.80;;;10.90;99.90;;;;;;4938780;29;20023;-73
2022/07/09 10:34:59;;;;;;;;;;;10.80;99.90;;;;;;4956468;29;20103;-73
2022/07/09 10:37:43;;;;;;;4.15;3.42;;;10.70;99.90;;;;;;4955107;28;19967;-73
2022/07/09 10:40:16;;;;;;;6.20;3.83;;;10.60;99.90;;;;;;4956132;29;20380;-73
2022/07/09 10:42:45;;;;;;;4.55;3.05;;;10.50;99.90;;;;;;4955905;29;20137;-73
2022/07/09 10:45:23;;;;;;;3.72;2.80;;;10.40;99.90;;;;;;4955869;29;20055;-74
2022/07/09 10:47:58;;;;;;;4.90;2.80;;;10.40;99.90;;;;;;4955771;29;20082;-74
2022/07/09 10:50:29;;;;;;;6.07;3.35;;;10.30;99.90;;;;;;4955820;29;20019;-74
2022/07/09 10:52:57;;;;;;;5.28;3.25;;;10.30;99.90;;;;;;4938526;29;20027;-74
2022/07/09 10:55:27;;;;;;;3.50;2.75;;;10.40;99.90;;;;;;4955727;29;20027;-74
2022/07/09 10:57:55;;;;;;;3.97;2.78;;;10.40;99.90;;;;;;4955766;29;20119;-74
2022/07/09 11:00:28;;;;;;;4.03;2.85;;;10.40;99.90;;;;;;4955580;29;20031;-73
2022/07/09 11:03:02;;;;;;;4.30;2.58;;;10.40;99.90;;;;;;4955718;29;20027;-72
2022/07/09 11:05:34;;;;;;;3.58;2.75;;;10.50;99.90;;;;;;4955303;29;20047;-73
2022/07/09 11:08:08;;;;;;;2.80;2.42;;;10.50;99.90;;;;;;4955692;29;20455;-74
2022/07/09 11:10:39;;;;;;;4.88;2.67;;;10.50;99.90;;;;;;4955543;29;20110;-73
2022/07/09 11:13:09;;;;;;;3.85;2.65;;;10.50;99.90;;;;;;4955446;29;20027;-73
2022/07/09 11:15:38;;;;;;;3.63;2.33;;;10.40;99.90;;;;;;4937827;29;20518;-73
2022/07/09 11:18:07;;;;;;;5.13;2.88;;;10.50;99.90;;;;;;4955236;29;20035;-73
2022/07/09 11:20:48;;;;;;;3.53;2.37;;;10.40;99.90;;;;;;4955123;29;20045;-72
2022/07/09 11:23:17;;;;;;;4.55;2.25;;;10.40;99.90;;;;;;4955320;29;20082;-73
2022/07/09 11:25:46;;;;;;;4.88;2.65;;;10.30;99.90;;;;;;4955137;29;20376;-74
2022/07/09 11:28:27;;;;;;;4.80;2.85;;;10.20;99.90;;;;;;4955303;29;20050;-74
2022/07/09 11:31:01;;;;;;;5.20;2.85;;;10.20;99.90;;;;;;4955310;29;20106;-74
2022/07/09 11:34:10;;;;;;;4.05;2.85;;;10.20;99.90;;;;;;4954959;29;20369;-74
2022/07/09 11:36:17;;;;;;;4.00;2.97;;;10.20;99.90;;;;;;4954605;29;20082;-73
2022/07/09 11:38:51;;;;;;;5.18;3.30;;;10.10;99.90;;;;;;4954842;29;20054;-73
2022/07/09 11:41:19;;;;;;;4.43;3.53;;;10.10;99.90;;;;;;4954836;29;20082;-73
2022/07/09 11:43:50;;;;;;;4.57;3.08;;;10.10;99.90;;;;;;4954833;29;20050;-73
2022/07/09 11:46:21;;;;;;;4.03;3.20;;;10.10;99.90;;;;;;4954845;29;20483;-74
2022/07/09 11:48:56;;;;;;;6.05;3.85;;;10.10;99.90;;;;;;4954518;28;20019;-73
2022/07/09 11:51:34;;;;;;;6.90;4.25;;;10.10;99.90;;;;;;4954715;29;20502;-74
2022/07/09 11:54:04;;;;;;;5.70;3.72;;;10.10;99.90;;;;;;4954730;29;20441;-73
2022/07/09 11:56:48;;;;;;;4.70;3.45;;;10.10;99.90;;;;;;4954815;29;20071;-73
2022/07/09 11:59:27;;;;;;;4.55;3.70;;;10.10;99.90;;;;;;4954979;29;20023;-74
2022/07/09 12:01:55;;;;;;;5.28;3.33;;;10.20;99.90;;;;;;4937393;29;20023;-74
2022/07/09 12:04:22;;;;;;;4.45;2.92;;;10.20;99.90;;;;;;4954505;29;20026;-73
2022/07/09 12:06:50;;;;;;;3.97;3.22;;;10.30;99.90;;;;;;4954287;29;20035;-75
2022/07/09 12:09:31;;;;;;;5.10;3.10;;;10.30;99.90;;;;;;4955060;29;20110;-74
2022/07/09 12:11:59;;;;;;;4.10;3.22;;;10.30;99.90;;;;;;4954752;29;20023;-74
2022/07/09 12:14:27;;;;;;;5.97;3.45;;;10.20;99.90;;;;;;4954364;29;20023;-73
2022/07/09 12:16:55;;;;;;;5.45;3.35;;;10.20;99.90;;;;;;4954398;29;20442;-73
2022/07/09 12:19:22;;;;;;;5.82;3.75;;;10.20;99.90;;;;;;4954779;29;20058;-74
2022/07/09 12:21:49;;;;;;;5.68;3.65;;;10.20;99.90;;;;;;4954459;29;20464;-73
2022/07/09 12:24:17;;;;;;;6.20;3.60;;;10.20;99.90;;;;;;4954603;29;20019;-74
2022/07/09 12:26:44;;;;;;;5.28;3.75;;;10.10;99.90;;;;;;4954484;29;20019;-73
2022/07/09 12:29:11;;;;;;;4.45;3.38;;;10.00;99.90;;;;;;4954521;29;20543;-74
2022/07/09 12:31:39;;;;;;;5.68;3.50;;;10.00;99.90;;;;;;4938218;29;20019;-73
2022/07/09 12:34:06;;;;;;;3.83;3.40;;;9.90;99.90;;;;;;4954275;29;20023;-73
2022/07/09 12:36:34;;;;;;;5.47;3.80;;;9.90;99.90;;;;;;4954215;29;20475;-73
2022/07/09 12:39:01;;;;;;;4.90;3.70;;;9.90;99.90;;;;;;4954571;29;20031;-73
2022/07/09 12:41:28;;;;;;;5.13;3.70;;;9.90;99.90;;;;;;4954341;29;20035;-73
2022/07/09 12:43:56;;;;;;;4.38;3.72;;;9.80;99.90;;;;;;4954493;29;20031;-73
2022/07/09 12:46:23;;;;;;;4.63;3.28;;;9.80;99.90;;;;;;4954499;29;20030;-73
2022/07/09 12:48:50;;;;;;;4.50;3.28;;;9.70;99.90;;;;;;4954534;29;20028;-72
2022/07/09 12:51:17;;;;;;;4.72;3.28;;;9.70;99.90;;;;;;4954366;29;20023;-72
2022/07/09 12:53:45;;;;;;;5.00;3.40;;;9.80;99.90;;;;;;4937023;29;20388;-72
2022/07/09 12:56:12;;;;;;;4.88;3.85;;;9.80;99.90;;;;;;4954404;29;20015;-73